createdAt,value
2022-11-13T00:03:18.770Z,102666.25
2022-11-13T00:08:43.240Z,102666.78
2022-11-13T00:14:07.535Z,102660.05
2022-11-13T00:19:30.964Z,102653.48
2022-11-13T00:24:54.447Z,102652.20
2022-11-13T00:30:19.697Z,102640.15
2022-11-13T00:35:43.493Z,102639.15
2022-11-13T00:41:07.069Z,102635.17
2022-11-13T00:46:30.923Z,102632.02
2022-11-13T00:51:54.676Z,102627.16
2022-11-13T00:57:17.969Z,102616.99
2022-11-13T01:02:41.297Z,102627.00
2022-11-13T01:08:05.688Z,102614.95
2022-11-13T01:13:29.463Z,102614.08
2022-11-13T01:18:55.565Z,102623.16
2022-11-13T01:24:20.659Z,102608.35
2022-11-13T01:29:44.479Z,102604.95
2022-11-13T01:35:08.539Z,102612.67
2022-11-13T01:40:32.119Z,102604.26
2022-11-13T01:46:05.059Z,102600.22
2022-11-13T01:51:33.988Z,102600.31
2022-11-13T01:56:59.192Z,102592.23
2022-11-13T02:02:22.928Z,102581.31
2022-11-13T02:07:46.874Z,102585.23
2022-11-13T02:13:11.303Z,102578.97
2022-11-13T02:18:37.691Z,102579.78
2022-11-13T02:24:14.441Z,102585.64
2022-11-13T02:29:38.270Z,102572.37
2022-11-13T02:35:01.683Z,102572.06
2022-11-13T02:40:26.255Z,102563.02
2022-11-13T02:45:49.612Z,102561.36
2022-11-13T02:51:14.361Z,102559.73
2022-11-13T02:56:37.573Z,102560.42
2022-11-13T03:02:01.001Z,102551.20
2022-11-13T03:07:24.511Z,102552.88
2022-11-13T03:12:48.219Z,102556.39
2022-11-13T03:18:12.827Z,102557.27
2022-11-13T03:23:36.600Z,102547.28
2022-11-13T03:29:00.109Z,102548.91
2022-11-13T03:34:23.589Z,102556.17
2022-11-13T03:39:47.148Z,102551.66
2022-11-13T03:45:11.109Z,102557.64
2022-11-13T03:50:34.847Z,102553.60
2022-11-13T03:55:58.438Z,102551.38
2022-11-13T04:01:21.871Z,102550.91
2022-11-13T04:06:45.641Z,102541.63
2022-11-13T04:12:09.345Z,102548.13
2022-11-13T04:17:33.339Z,102544.66
2022-11-13T04:22:58.324Z,102546.78
2022-11-13T04:28:22.728Z,102544.44
2022-11-13T04:33:45.989Z,102538.40
2022-11-13T04:39:10.108Z,102542.28
2022-11-13T04:44:33.344Z,102542.28
2022-11-13T04:49:57.027Z,102542.63
2022-11-13T04:55:20.381Z,102543.50
2022-11-13T05:00:44.110Z,102538.40
2022-11-13T05:06:10.359Z,102536.18
2022-11-13T05:11:34.364Z,102533.33
2022-11-13T05:16:58.010Z,102538.30
2022-11-13T05:22:21.952Z,102538.42
2022-11-13T05:27:45.404Z,102532.05
2022-11-13T05:33:09.007Z,102527.14
2022-11-13T05:38:33.391Z,102524.80
2022-11-13T05:43:59.836Z,102524.86
2022-11-13T05:49:23.553Z,102523.63
2022-11-13T05:54:47.207Z,102516.97
2022-11-13T06:00:11.931Z,102512.94
2022-11-13T06:05:36.837Z,102513.76
2022-11-13T06:11:02.727Z,102514.22
2022-11-13T06:16:29.076Z,102499.56
2022-11-13T06:21:53.084Z,102509.44
2022-11-13T06:27:16.358Z,102504.75
2022-11-13T06:32:39.996Z,102503.89
2022-11-13T06:38:03.505Z,102500.73
2022-11-13T06:43:27.388Z,102486.89
2022-11-13T06:48:51.235Z,102493.89
2022-11-13T06:54:15.300Z,102499.96
2022-11-13T06:59:39.884Z,102501.48
2022-11-13T07:05:03.111Z,102496.64
2022-11-13T07:10:26.438Z,102493.70
2022-11-13T07:15:49.853Z,102497.56
2022-11-13T07:21:14.441Z,102494.12
2022-11-13T07:26:38.094Z,102490.37
2022-11-13T07:32:01.514Z,102499.25
2022-11-13T07:37:25.287Z,102489.62
2022-11-13T07:42:48.915Z,102486.83
2022-11-13T07:48:12.564Z,102486.46
2022-11-13T07:53:36.242Z,102500.03
2022-11-13T07:58:59.595Z,102508.37
2022-11-13T08:04:23.285Z,102506.50
2022-11-13T08:09:46.644Z,102507.91
2022-11-13T08:15:13.663Z,102499.25
2022-11-13T08:20:37.854Z,102497.50
2022-11-13T08:26:06.542Z,102494.22
2022-11-13T08:31:29.949Z,102495.84
2022-11-13T08:36:53.445Z,102497.25
2022-11-13T08:42:17.319Z,102505.16
2022-11-13T08:47:41.065Z,102491.53
2022-11-13T08:53:04.567Z,102487.15
2022-11-13T08:58:28.687Z,102491.43
2022-11-13T09:03:53.027Z,102492.18
2022-11-13T09:09:16.514Z,102489.84
2022-11-13T09:14:40.284Z,102493.53
2022-11-13T09:20:04.948Z,102491.09
2022-11-13T09:25:36.899Z,102488.74
2022-11-13T09:30:56.662Z,102489.62
2022-11-13T09:36:20.609Z,102496.86
2022-11-13T09:41:47.219Z,102498.68
2022-11-13T09:47:20.077Z,102489.92
2022-11-13T09:52:45.731Z,102487.05
2022-11-13T09:58:22.232Z,102483.77
2022-11-13T10:04:04.727Z,102481.14
2022-11-13T10:09:28.778Z,102479.70
2022-11-13T10:14:54.998Z,102480.67
2022-11-13T10:20:24.294Z,102481.14
2022-11-13T10:25:51.895Z,102477.92
2022-11-13T10:31:15.832Z,102467.92
2022-11-13T10:36:55.892Z,102457.02
2022-11-13T10:42:30.971Z,102455.33
2022-11-13T10:48:04.349Z,102455.39
2022-11-13T10:53:20.654Z,102446.79
2022-11-13T10:58:44.356Z,102443.41
2022-11-13T11:04:10.501Z,102434.16
2022-11-13T11:09:37.455Z,102431.08
2022-11-13T11:15:04.969Z,102424.13
2022-11-13T11:20:34.731Z,102424.35
2022-11-13T11:26:13.230Z,102422.79
2022-11-13T11:32:03.920Z,102415.13
2022-11-13T11:37:33.159Z,102403.98
2022-11-13T11:43:17.671Z,102380.73
2022-11-13T11:48:41.936Z,102376.51
2022-11-13T11:54:30.850Z,102366.36
2022-11-13T12:00:01.869Z,102372.55
2022-11-13T12:05:31.497Z,102366.70
2022-11-13T12:11:19.018Z,102370.86
2022-11-13T12:17:15.990Z,102362.37
2022-11-13T12:22:42.903Z,102366.57
2022-11-13T12:28:18.892Z,102362.11
2022-11-13T12:34:01.719Z,102361.98
2022-11-13T12:39:34.074Z,102359.02
2022-11-13T12:45:12.266Z,102358.14
2022-11-13T12:50:36.372Z,102351.83
2022-11-13T12:56:02.645Z,102350.27
2022-11-13T13:01:32.360Z,102342.40
2022-11-13T13:07:05.002Z,102330.34
2022-11-13T13:12:37.419Z,102336.18
2022-11-13T13:18:19.247Z,102329.45
2022-11-13T13:23:45.983Z,102337.39
2022-11-13T13:29:24.611Z,102335.66
2022-11-13T13:35:00.359Z,102324.89
2022-11-13T13:40:49.645Z,102319.93
2022-11-13T13:46:19.883Z,102326.90
2022-11-13T13:51:46.326Z,102318.75
2022-11-13T13:57:12.918Z,102308.85
2022-11-13T14:02:39.484Z,102303.78
2022-11-13T14:08:07.613Z,102297.08
2022-11-13T14:13:31.453Z,102293.31
2022-11-13T14:18:58.074Z,102288.77
2022-11-13T14:24:27.062Z,102291.31
2022-11-13T14:29:53.501Z,102266.45
2022-11-13T14:35:22.519Z,102275.84
2022-11-13T14:40:49.037Z,102278.06
2022-11-13T14:46:33.901Z,102279.59
2022-11-13T14:52:00.314Z,102274.15
2022-11-13T14:57:23.800Z,102273.05
2022-11-13T15:02:47.457Z,102283.02
2022-11-13T15:08:13.908Z,102273.27
2022-11-13T15:13:37.336Z,102265.10
2022-11-13T15:19:04.149Z,102258.05
2022-11-13T15:24:28.260Z,102245.84
2022-11-13T15:29:51.537Z,102244.52
2022-11-13T15:35:17.939Z,102238.28
2022-11-13T15:40:41.656Z,102242.52
2022-11-13T15:46:05.146Z,102230.91
2022-11-13T15:51:49.848Z,102233.66
2022-11-13T15:57:16.133Z,102229.52
2022-11-13T16:02:41.533Z,102223.11
2022-11-13T16:08:08.039Z,102221.47
2022-11-13T16:13:35.551Z,102216.80
2022-11-13T16:19:00.548Z,102216.80
2022-11-13T16:24:24.484Z,102216.92
2022-11-13T16:29:47.924Z,102215.39
2022-11-13T16:35:16.362Z,102206.00
2022-11-13T16:40:43.448Z,102206.35
2022-11-13T16:46:32.106Z,102209.15
2022-11-13T16:51:55.632Z,102197.44
2022-11-13T16:57:19.922Z,102205.19
2022-11-13T17:02:43.831Z,102195.74
2022-11-13T17:08:07.544Z,102190.15
2022-11-13T17:13:31.421Z,102193.33
2022-11-13T17:18:56.230Z,102187.82
2022-11-13T17:24:23.837Z,102171.71
2022-11-13T17:29:47.433Z,102185.98
2022-11-13T17:35:13.696Z,102178.44
2022-11-13T17:40:37.511Z,102169.91
2022-11-13T17:46:01.172Z,102168.97
2022-11-13T17:51:25.107Z,102168.68
2022-11-13T17:56:48.782Z,102168.45
2022-11-13T18:02:15.660Z,102162.77
2022-11-13T18:07:42.887Z,102169.41
2022-11-13T18:13:06.994Z,102180.80
2022-11-13T18:18:30.733Z,102174.88
2022-11-13T18:23:59.440Z,102175.77
2022-11-13T18:29:22.845Z,102176.57
2022-11-13T18:34:46.120Z,102181.00
2022-11-13T18:40:10.895Z,102179.08
2022-11-13T18:45:34.454Z,102188.33
2022-11-13T18:50:59.959Z,102187.23
2022-11-13T18:56:26.219Z,102181.05
2022-11-13T19:01:49.959Z,102180.66
2022-11-13T19:07:13.701Z,102179.60
2022-11-13T19:12:43.453Z,102181.41
2022-11-13T19:18:08.433Z,102169.11
2022-11-13T19:23:31.712Z,102170.09
2022-11-13T19:28:56.388Z,102170.58
2022-11-13T19:34:19.632Z,102163.25
2022-11-13T19:39:43.473Z,102165.11
2022-11-13T19:45:08.148Z,102159.02
2022-11-13T19:50:32.016Z,102155.88
2022-11-13T19:55:56.658Z,102164.50
2022-11-13T20:01:23.037Z,102163.38
2022-11-13T20:06:46.628Z,102163.48
2022-11-13T20:12:10.550Z,102166.16
2022-11-13T20:17:34.406Z,102159.16
2022-11-13T20:23:04.213Z,102155.66
2022-11-13T20:28:30.272Z,102154.98
2022-11-13T20:33:56.252Z,102157.30
2022-11-13T20:39:20.231Z,102143.55
2022-11-13T20:44:43.492Z,102141.55
2022-11-13T20:50:08.813Z,102136.30
2022-11-13T20:55:33.690Z,102138.97
2022-11-13T21:01:09.145Z,102146.23
2022-11-13T21:06:32.971Z,102151.48
2022-11-13T21:11:56.392Z,102160.02
2022-11-13T21:17:19.954Z,102158.75
2022-11-13T21:22:43.730Z,102160.52
2022-11-13T21:28:07.652Z,102158.24
2022-11-13T21:33:33.362Z,102144.23
2022-11-13T21:38:57.789Z,102131.45
2022-11-13T21:44:21.368Z,102144.69
2022-11-13T21:49:44.806Z,102133.31
2022-11-13T21:55:10.114Z,102130.69
2022-11-13T22:00:34.380Z,102119.90
2022-11-13T22:06:20.364Z,102115.02
2022-11-13T22:11:43.997Z,102113.68
2022-11-13T22:17:07.289Z,102124.83
2022-11-13T22:22:31.155Z,102118.56
2022-11-13T22:27:54.377Z,102113.99
2022-11-13T22:33:17.861Z,102119.08
2022-11-13T22:38:43.089Z,102109.72
2022-11-13T22:44:08.916Z,102106.84
2022-11-13T22:49:32.451Z,102087.21
2022-11-13T22:54:55.862Z,102091.53
2022-11-13T23:00:21.469Z,102088.80
2022-11-13T23:05:45.113Z,102084.38
2022-11-13T23:11:10.784Z,102086.84
2022-11-13T23:16:35.000Z,102086.93
2022-11-13T23:21:58.289Z,102075.70
2022-11-13T23:27:21.780Z,102073.40
2022-11-13T23:32:45.258Z,102073.34
2022-11-13T23:38:08.480Z,102066.21
2022-11-13T23:44:06.662Z,102061.06
2022-11-13T23:48:59.108Z,102049.27
2022-11-13T23:54:22.629Z,102040.61
2022-11-13T23:59:46.247Z,102045.79
